Terminal Aerodrome Forecast
Issued by NWS Omaha/Valley, NE

Home | Current Version | Previous Version | Text Only | Print | Product List | Glossary On
Versions: 1 2 3 4 5 6 7 8 9 10 11 12 13 14 15 16 17 18 19 20 21 22 23 24 25
000
FTUS43 KOAX 231123
TAFOFK
TAF
KOFK 231123Z 2312/2412 VRB04KT P6SM SKC
     FM231600 19016G24KT P6SM SKC
     FM240100 17013KT P6SM SKC
     FM240900 18015G23KT P6SM SCT250 WS020/19045KT=

USA.gov is the U.S. government's official web portal to all federal, state and local government web resources and services.